createdAt,value
2022-08-25T00:00:06.727Z,93.61
2022-08-25T00:00:42.518Z,93.71
2022-08-25T00:01:23.117Z,93.08
2022-08-25T00:02:04.729Z,92.84
2022-08-25T00:02:39.420Z,92.20
2022-08-25T00:03:12.974Z,91.87
2022-08-25T00:03:46.717Z,91.92
2022-08-25T00:04:20.939Z,91.18
2022-08-25T00:04:53.670Z,90.89
2022-08-25T00:05:29.387Z,90.70
2022-08-25T00:06:05.459Z,90.46
2022-08-25T00:06:41.726Z,90.14
2022-08-25T00:07:16.009Z,90.39
2022-08-25T00:07:53.718Z,89.88
2022-08-25T00:08:29.119Z,90.02
2022-08-25T00:09:02.518Z,91.01
2022-08-25T00:09:36.508Z,91.15
2022-08-25T00:10:10.317Z,90.74
2022-08-25T00:10:45.521Z,91.56
2022-08-25T00:11:35.759Z,91.42
2022-08-25T00:12:07.255Z,91.54
2022-08-25T00:12:38.720Z,91.48
2022-08-25T00:13:12.522Z,91.51
2022-08-25T00:13:47.197Z,91.11
2022-08-25T00:14:20.226Z,91.48
2022-08-25T00:14:54.518Z,90.93
2022-08-25T00:15:26.560Z,90.30
2022-08-25T00:15:59.918Z,90.68
2022-08-25T00:16:32.529Z,90.77
2022-08-25T00:17:07.527Z,89.81
2022-08-25T00:17:40.539Z,89.86
2022-08-25T00:18:19.676Z,90.42
2022-08-25T00:18:56.450Z,90.18
2022-08-25T00:19:30.193Z,89.30
2022-08-25T00:20:01.661Z,90.06
2022-08-25T00:20:33.096Z,90.83
2022-08-25T00:21:07.118Z,90.94
2022-08-25T00:21:41.900Z,90.19
2022-08-25T00:22:13.921Z,89.81
2022-08-25T00:22:47.642Z,89.70
2022-08-25T00:23:21.354Z,90.18
2022-08-25T00:23:54.117Z,89.71
2022-08-25T00:24:26.870Z,90.98
2022-08-25T00:25:00.317Z,90.42
2022-08-25T00:25:32.541Z,89.91
2022-08-25T00:26:04.602Z,90.56
2022-08-25T00:26:40.518Z,90.39
2022-08-25T00:27:15.692Z,89.96
2022-08-25T00:27:51.722Z,90.38
2022-08-25T00:28:24.085Z,89.95
2022-08-25T00:29:01.327Z,89.91
2022-08-25T00:29:40.117Z,91.10
2022-08-25T00:30:16.518Z,90.92
2022-08-25T00:30:50.129Z,91.54
2022-08-25T00:31:37.857Z,91.84
2022-08-25T00:32:13.710Z,91.22
2022-08-25T00:32:55.466Z,89.96
2022-08-25T00:33:31.276Z,89.77
2022-08-25T00:34:05.118Z,89.52
2022-08-25T00:34:44.517Z,89.63
2022-08-25T00:35:19.390Z,89.55
2022-08-25T00:35:54.317Z,89.64
2022-08-25T00:36:29.929Z,89.40
2022-08-25T00:37:04.791Z,89.46
2022-08-25T00:37:39.216Z,89.02
2022-08-25T00:38:13.919Z,89.06
2022-08-25T00:38:47.717Z,88.65
2022-08-25T00:39:21.154Z,88.39
2022-08-25T00:39:56.656Z,88.93
2022-08-25T00:40:32.164Z,88.70
2022-08-25T00:41:08.329Z,88.50
2022-08-25T00:41:44.317Z,88.54
2022-08-25T00:42:22.521Z,88.41
2022-08-25T00:42:57.918Z,89.42
2022-08-25T00:43:53.789Z,89.58
2022-08-25T00:44:29.927Z,91.44
2022-08-25T00:45:06.919Z,91.48
2022-08-25T00:45:39.450Z,92.15
2022-08-25T00:46:12.168Z,92.79
2022-08-25T00:46:48.526Z,92.74
2022-08-25T00:47:20.724Z,91.18
2022-08-25T00:47:54.657Z,90.33
2022-08-25T00:48:32.520Z,90.16
2022-08-25T00:49:25.466Z,89.80
2022-08-25T00:49:58.921Z,90.79
2022-08-25T00:50:32.263Z,90.78
2022-08-25T00:51:05.483Z,90.34
2022-08-25T00:51:38.775Z,90.64
2022-08-25T00:52:28.526Z,91.25
2022-08-25T00:53:03.075Z,90.01
2022-08-25T00:53:37.319Z,90.77
2022-08-25T00:54:10.728Z,91.75
2022-08-25T00:54:44.769Z,92.20
2022-08-25T00:55:24.918Z,92.50
2022-08-25T00:55:59.028Z,93.13
2022-08-25T00:56:32.718Z,93.34
2022-08-25T00:57:07.976Z,93.61
2022-08-25T00:57:44.525Z,94.21
2022-08-25T00:58:26.908Z,94.06
2022-08-25T00:58:58.589Z,94.03
2022-08-25T00:59:31.910Z,94.25
2022-08-25T01:00:07.920Z,94.02
2022-08-25T01:00:45.318Z,94.21
2022-08-25T01:01:20.208Z,94.32
2022-08-25T01:01:55.237Z,94.44
2022-08-25T01:02:27.589Z,93.84
2022-08-25T01:03:04.173Z,93.19
2022-08-25T01:03:37.257Z,93.19
2022-08-25T01:04:11.398Z,93.48
2022-08-25T01:04:49.163Z,93.58
2022-08-25T01:05:22.118Z,93.57
2022-08-25T01:05:58.319Z,92.75
2022-08-25T01:06:34.519Z,92.54
2022-08-25T01:07:11.234Z,92.26
2022-08-25T01:07:50.217Z,91.58
2022-08-25T01:08:26.348Z,91.42
2022-08-25T01:09:00.588Z,90.69
2022-08-25T01:09:36.133Z,90.83
2022-08-25T01:10:12.133Z,91.19
2022-08-25T01:10:43.941Z,91.24
2022-08-25T01:11:15.578Z,91.82
2022-08-25T01:11:49.342Z,92.38
2022-08-25T01:12:23.317Z,92.56
2022-08-25T01:13:16.022Z,92.84
2022-08-25T01:13:53.719Z,92.97
2022-08-25T01:14:25.622Z,92.74
2022-08-25T01:14:58.317Z,92.87
2022-08-25T01:15:32.057Z,93.24
2022-08-25T01:16:07.454Z,93.11
2022-08-25T01:16:40.576Z,92.99
2022-08-25T01:17:12.333Z,92.98
2022-08-25T01:17:49.500Z,92.23
2022-08-25T01:18:22.519Z,92.40
2022-08-25T01:18:59.524Z,92.09
2022-08-25T01:19:35.561Z,90.99
2022-08-25T01:20:07.898Z,91.25
2022-08-25T01:20:43.310Z,91.82
2022-08-25T01:21:16.916Z,92.54
2022-08-25T01:21:53.515Z,92.55
2022-08-25T01:22:28.328Z,92.90
2022-08-25T01:23:01.008Z,93.42
2022-08-25T01:23:32.648Z,93.67
2022-08-25T01:24:05.517Z,93.61
2022-08-25T01:24:41.124Z,93.88
2022-08-25T01:25:18.024Z,94.19
2022-08-25T01:26:06.142Z,93.84
2022-08-25T01:26:37.647Z,94.41
2022-08-25T01:27:13.193Z,95.12
2022-08-25T01:27:45.065Z,94.81
2022-08-25T01:28:20.339Z,95.18
2022-08-25T01:29:13.319Z,94.83
2022-08-25T01:29:51.121Z,94.71
2022-08-25T01:30:26.719Z,94.63
2022-08-25T01:31:00.815Z,94.79
2022-08-25T01:31:33.055Z,94.44
2022-08-25T01:32:10.723Z,94.65
2022-08-25T01:32:47.923Z,94.75
2022-08-25T01:33:24.316Z,94.14
2022-08-25T01:33:58.994Z,93.90
2022-08-25T01:34:37.926Z,93.90
2022-08-25T01:35:12.917Z,93.95
2022-08-25T01:35:47.722Z,93.09
2022-08-25T01:36:22.917Z,92.73
2022-08-25T01:36:57.002Z,93.10
2022-08-25T01:37:29.918Z,93.81
2022-08-25T01:38:03.307Z,94.17
2022-08-25T01:38:37.917Z,92.83
2022-08-25T01:39:12.925Z,91.55
2022-08-25T01:39:47.380Z,90.37
2022-08-25T01:40:23.050Z,89.92
2022-08-25T01:40:57.717Z,89.52
2022-08-25T01:41:39.131Z,88.91
2022-08-25T01:42:19.750Z,89.05
2022-08-25T01:43:02.476Z,89.91
2022-08-25T01:43:39.570Z,89.60
2022-08-25T01:44:16.773Z,89.60
2022-08-25T01:44:51.728Z,88.73
2022-08-25T01:45:26.162Z,87.77
2022-08-25T01:46:00.733Z,88.56
2022-08-25T01:46:36.057Z,87.44
2022-08-25T01:47:12.717Z,87.17
2022-08-25T01:47:46.323Z,86.86
2022-08-25T01:48:21.715Z,86.76
2022-08-25T01:48:57.678Z,86.24
2022-08-25T01:49:31.918Z,85.99
2022-08-25T01:50:07.518Z,86.65
2022-08-25T01:50:43.722Z,87.33
2022-08-25T01:51:19.320Z,87.75
2022-08-25T01:51:56.717Z,87.60
2022-08-25T01:52:44.124Z,87.35
2022-08-25T01:53:34.325Z,86.64
2022-08-25T01:54:09.115Z,86.68
2022-08-25T01:54:44.916Z,86.02
2022-08-25T01:55:20.717Z,85.91
2022-08-25T01:55:57.989Z,85.09
2022-08-25T01:56:34.727Z,86.12
2022-08-25T01:57:10.517Z,86.46
2022-08-25T01:57:44.794Z,86.23
2022-08-25T01:58:21.320Z,86.34
2022-08-25T01:58:56.517Z,85.99
2022-08-25T01:59:31.117Z,85.70
2022-08-25T02:00:07.467Z,85.15
2022-08-25T02:00:47.517Z,84.64
2022-08-25T02:01:24.990Z,83.07
2022-08-25T02:02:00.939Z,83.56
2022-08-25T02:02:42.546Z,83.52
2022-08-25T02:03:18.813Z,84.31
2022-08-25T02:03:56.193Z,84.16
2022-08-25T02:04:34.349Z,84.32
2022-08-25T02:05:12.125Z,83.55
2022-08-25T02:05:48.231Z,82.12
2022-08-25T02:06:28.856Z,81.55
2022-08-25T02:07:06.916Z,82.33
2022-08-25T02:07:46.920Z,82.58
2022-08-25T02:08:24.923Z,81.55
2022-08-25T02:09:02.121Z,81.44
2022-08-25T02:09:33.730Z,81.82
2022-08-25T02:10:08.341Z,82.92
2022-08-25T02:10:42.717Z,81.86
2022-08-25T02:11:17.808Z,83.20
2022-08-25T02:11:52.317Z,83.38
2022-08-25T02:12:26.918Z,83.05
2022-08-25T02:13:01.317Z,83.29
2022-08-25T02:13:37.321Z,84.21
2022-08-25T02:14:09.777Z,84.70
2022-08-25T02:14:44.917Z,84.09
2022-08-25T02:15:19.073Z,84.85
2022-08-25T02:15:54.109Z,84.86
2022-08-25T02:16:28.839Z,84.82
2022-08-25T02:17:04.141Z,84.78
2022-08-25T02:17:38.717Z,84.19
2022-08-25T02:18:14.317Z,83.87
2022-08-25T02:18:50.532Z,82.90
2022-08-25T02:19:27.916Z,83.48
2022-08-25T02:20:02.520Z,83.56
2022-08-25T02:20:38.119Z,83.15
2022-08-25T02:21:14.478Z,82.13
2022-08-25T02:21:49.917Z,81.80
2022-08-25T02:22:26.728Z,81.66
2022-08-25T02:22:59.083Z,80.87
2022-08-25T02:23:30.568Z,80.43
2022-08-25T02:24:03.916Z,79.54
2022-08-25T02:24:36.745Z,79.53
2022-08-25T02:25:11.516Z,79.64
2022-08-25T02:25:44.229Z,79.93
2022-08-25T02:26:19.924Z,79.83
2022-08-25T02:26:53.916Z,79.63
2022-08-25T02:27:30.317Z,79.30
2022-08-25T02:28:03.176Z,79.05
2022-08-25T02:28:34.638Z,80.00
2022-08-25T02:29:09.316Z,80.65
2022-08-25T02:29:43.918Z,80.59
2022-08-25T02:30:20.132Z,79.82
2022-08-25T02:30:58.710Z,79.72
2022-08-25T02:31:36.717Z,78.96
2022-08-25T02:32:11.123Z,78.49
2022-08-25T02:32:45.518Z,78.85
2022-08-25T02:33:21.483Z,78.68
2022-08-25T02:33:56.325Z,76.46
2022-08-25T02:34:32.717Z,75.08
2022-08-25T02:35:07.369Z,73.76
2022-08-25T02:35:42.716Z,73.05
2022-08-25T02:36:14.933Z,71.56
2022-08-25T02:36:49.189Z,72.10
2022-08-25T02:37:25.999Z,72.46
2022-08-25T02:38:01.735Z,71.43
2022-08-25T02:38:36.715Z,70.63
2022-08-25T02:39:09.710Z,70.83
2022-08-25T02:39:43.716Z,70.39
2022-08-25T02:40:19.366Z,70.44
2022-08-25T02:40:55.117Z,70.44
2022-08-25T02:41:31.778Z,69.32
2022-08-25T02:42:06.515Z,69.67
2022-08-25T02:42:42.760Z,69.99
2022-08-25T02:43:17.525Z,69.53
2022-08-25T02:43:49.788Z,68.68
2022-08-25T02:44:23.536Z,68.55
2022-08-25T02:44:59.321Z,69.55
2022-08-25T02:45:33.361Z,69.13
2022-08-25T02:46:08.015Z,70.88
2022-08-25T02:46:41.695Z,72.16
2022-08-25T02:47:13.120Z,71.60
2022-08-25T02:47:44.717Z,70.83
2022-08-25T02:48:20.119Z,70.55
2022-08-25T02:48:55.116Z,70.32
2022-08-25T02:49:30.129Z,71.64
2022-08-25T02:50:03.491Z,70.19
2022-08-25T02:50:35.396Z,70.89
2022-08-25T02:51:09.234Z,71.00
2022-08-25T02:51:54.552Z,71.31
2022-08-25T02:52:26.100Z,70.90
2022-08-25T02:53:00.518Z,70.24
2022-08-25T02:53:33.345Z,69.32
2022-08-25T02:54:05.055Z,69.96
2022-08-25T02:54:39.595Z,70.23
2022-08-25T02:55:15.317Z,69.09
2022-08-25T02:55:47.907Z,67.77
2022-08-25T02:56:20.031Z,67.30
2022-08-25T02:56:54.517Z,67.50
2022-08-25T02:57:30.920Z,67.50
2022-08-25T02:58:04.683Z,68.32
2022-08-25T02:58:41.316Z,68.34
2022-08-25T02:59:17.116Z,67.26
2022-08-25T02:59:53.116Z,67.35
2022-08-25T03:00:28.316Z,67.19
2022-08-25T03:01:03.371Z,68.14
2022-08-25T03:01:37.303Z,67.91
2022-08-25T03:02:11.517Z,67.42
2022-08-25T03:02:46.516Z,67.82
2022-08-25T03:03:21.516Z,68.54
2022-08-25T03:03:57.082Z,68.20
2022-08-25T03:04:36.146Z,67.73
2022-08-25T03:05:09.419Z,67.38
2022-08-25T03:05:43.603Z,66.69
2022-08-25T03:06:16.820Z,66.40
2022-08-25T03:06:51.318Z,66.97
2022-08-25T03:07:25.118Z,67.63
2022-08-25T03:08:01.390Z,67.53
2022-08-25T03:08:36.915Z,67.96
2022-08-25T03:09:11.316Z,68.24
2022-08-25T03:09:46.339Z,67.91
2022-08-25T03:10:23.118Z,67.62
2022-08-25T03:10:56.446Z,67.49
2022-08-25T03:11:32.916Z,66.88
2022-08-25T03:12:06.922Z,66.84
2022-08-25T03:12:43.602Z,66.73
2022-08-25T03:13:17.105Z,65.96
2022-08-25T03:13:52.014Z,66.20
2022-08-25T03:14:26.717Z,65.76
2022-08-25T03:15:02.183Z,66.14
2022-08-25T03:15:37.660Z,66.34
2022-08-25T03:16:12.323Z,65.98
2022-08-25T03:16:47.249Z,65.46
2022-08-25T03:17:22.140Z,65.86
2022-08-25T03:17:59.916Z,66.18
2022-08-25T03:18:34.317Z,66.17
2022-08-25T03:19:08.320Z,65.52
2022-08-25T03:19:42.119Z,65.58
2022-08-25T03:20:17.916Z,65.57
2022-08-25T03:20:52.135Z,65.94
2022-08-25T03:21:27.728Z,66.61
2022-08-25T03:21:59.714Z,65.87
2022-08-25T03:22:34.292Z,65.86
2022-08-25T03:23:08.139Z,66.26
2022-08-25T03:23:44.320Z,66.62
2022-08-25T03:24:18.722Z,66.68
2022-08-25T03:24:50.678Z,66.25
2022-08-25T03:25:41.522Z,66.46
2022-08-25T03:26:33.915Z,66.53
2022-08-25T03:27:09.719Z,66.79
2022-08-25T03:27:46.721Z,68.43
2022-08-25T03:28:21.715Z,68.86
2022-08-25T03:29:08.717Z,67.73
2022-08-25T03:29:44.318Z,68.96
2022-08-25T03:30:21.120Z,70.01
2022-08-25T03:30:57.183Z,70.21
2022-08-25T03:31:34.366Z,70.40
2022-08-25T03:32:09.956Z,70.02
2022-08-25T03:32:44.517Z,69.50
2022-08-25T03:33:20.117Z,68.34
2022-08-25T03:33:55.318Z,68.81
2022-08-25T03:34:28.439Z,69.47
2022-08-25T03:35:02.782Z,68.33
2022-08-25T03:35:37.315Z,68.01
2022-08-25T03:36:14.116Z,69.19
2022-08-25T03:36:50.518Z,69.77
2022-08-25T03:37:26.117Z,68.54
2022-08-25T03:38:03.637Z,68.14
2022-08-25T03:38:40.394Z,69.49
2022-08-25T03:39:16.116Z,69.83
2022-08-25T03:39:53.153Z,70.57
2022-08-25T03:40:27.761Z,70.89
2022-08-25T03:41:02.518Z,70.75
2022-08-25T03:41:34.625Z,70.64
2022-08-25T03:42:12.730Z,70.74
2022-08-25T03:42:46.813Z,71.19
2022-08-25T03:43:20.917Z,71.54
2022-08-25T03:43:55.768Z,71.72
2022-08-25T03:44:29.924Z,71.37
2022-08-25T03:45:06.489Z,72.40
2022-08-25T03:45:44.370Z,72.15
2022-08-25T03:46:20.454Z,72.41
2022-08-25T03:46:55.144Z,73.25
2022-08-25T03:47:32.117Z,72.55
2022-08-25T03:48:06.457Z,73.37
2022-08-25T03:48:41.721Z,73.67
2022-08-25T03:49:23.922Z,74.69
2022-08-25T03:49:59.609Z,73.31
2022-08-25T03:50:34.123Z,74.67
2022-08-25T03:51:08.717Z,74.66
2022-08-25T03:51:48.916Z,74.21
2022-08-25T03:52:20.473Z,73.99
2022-08-25T03:52:56.603Z,74.98
2022-08-25T03:53:30.716Z,74.69
2022-08-25T03:54:05.357Z,75.51
2022-08-25T03:54:40.916Z,75.85
2022-08-25T03:55:16.918Z,76.14
2022-08-25T03:55:52.287Z,77.18
2022-08-25T03:56:29.321Z,77.35
2022-08-25T03:57:05.316Z,77.52
2022-08-25T03:57:38.179Z,77.89
2022-08-25T03:58:12.116Z,78.11
2022-08-25T03:58:48.115Z,78.34
2022-08-25T03:59:22.079Z,79.23
2022-08-25T03:59:57.122Z,79.08
2022-08-25T04:00:32.854Z,79.21
2022-08-25T04:01:06.606Z,79.24
2022-08-25T04:01:42.347Z,78.84
2022-08-25T04:02:15.692Z,79.64
2022-08-25T04:02:48.316Z,80.59
2022-08-25T04:03:23.120Z,80.78
2022-08-25T04:03:55.706Z,81.08
2022-08-25T04:04:30.115Z,80.57
2022-08-25T04:05:03.854Z,81.30
2022-08-25T04:05:35.678Z,80.94
2022-08-25T04:06:09.991Z,81.53
2022-08-25T04:06:44.124Z,81.71
2022-08-25T04:07:19.717Z,82.36
2022-08-25T04:07:54.303Z,82.50
2022-08-25T04:08:28.914Z,82.61
2022-08-25T04:09:01.530Z,82.39
2022-08-25T04:09:36.981Z,82.43
2022-08-25T04:10:14.470Z,83.09
2022-08-25T04:10:49.146Z,83.31
2022-08-25T04:11:22.450Z,83.55
2022-08-25T04:11:53.971Z,83.63
2022-08-25T04:12:25.536Z,83.41
2022-08-25T04:13:00.916Z,83.47
2022-08-25T04:13:33.327Z,83.75
2022-08-25T04:14:07.322Z,83.37
2022-08-25T04:14:38.921Z,83.38
2022-08-25T04:15:13.071Z,83.25
2022-08-25T04:15:45.959Z,83.95
2022-08-25T04:16:24.776Z,82.78
2022-08-25T04:17:00.413Z,81.48
2022-08-25T04:17:32.762Z,81.15
2022-08-25T04:18:04.839Z,80.77
2022-08-25T04:18:40.319Z,81.44
2022-08-25T04:19:14.722Z,80.88
2022-08-25T04:19:48.866Z,79.91
2022-08-25T04:20:20.471Z,79.15
2022-08-25T04:20:58.121Z,79.30
2022-08-25T04:21:32.322Z,78.96
2022-08-25T04:22:07.115Z,78.96
2022-08-25T04:22:40.914Z,78.77
2022-08-25T04:23:18.904Z,77.89
2022-08-25T04:23:57.514Z,78.17
2022-08-25T04:24:31.665Z,78.68
2022-08-25T04:25:05.714Z,78.51
2022-08-25T04:25:42.296Z,78.85
2022-08-25T04:26:20.213Z,78.76
2022-08-25T04:26:55.515Z,79.13
2022-08-25T04:27:30.514Z,75.77
2022-08-25T04:28:02.802Z,74.79
2022-08-25T04:28:35.714Z,74.74
2022-08-25T04:29:10.697Z,74.89
2022-08-25T04:29:45.622Z,75.22
2022-08-25T04:30:21.715Z,75.14
2022-08-25T04:30:57.115Z,73.88
2022-08-25T04:31:33.162Z,72.72
2022-08-25T04:32:07.946Z,72.76
2022-08-25T04:32:41.821Z,73.49
2022-08-25T04:33:13.654Z,74.10
2022-08-25T04:33:46.599Z,73.78
2022-08-25T04:34:30.722Z,74.73
2022-08-25T04:35:06.316Z,75.19
2022-08-25T04:35:39.163Z,73.99
2022-08-25T04:36:14.920Z,73.01
2022-08-25T04:36:54.440Z,72.25
2022-08-25T04:37:28.317Z,72.27
2022-08-25T04:38:02.834Z,71.99
2022-08-25T04:38:38.321Z,73.02
2022-08-25T04:39:10.526Z,73.62
2022-08-25T04:39:45.800Z,73.27
2022-08-25T04:40:18.185Z,73.16
2022-08-25T04:41:02.280Z,73.66
2022-08-25T04:41:36.922Z,72.66
2022-08-25T04:42:11.514Z,73.20
2022-08-25T04:42:48.104Z,73.07
2022-08-25T04:43:22.723Z,73.59
2022-08-25T04:43:58.872Z,74.08
2022-08-25T04:44:34.513Z,74.17
2022-08-25T04:45:09.157Z,74.92
2022-08-25T04:45:44.014Z,75.13
2022-08-25T04:46:20.794Z,75.29
2022-08-25T04:46:53.724Z,75.74
2022-08-25T04:47:27.722Z,75.80
2022-08-25T04:48:03.590Z,76.22
2022-08-25T04:48:36.183Z,76.82
2022-08-25T04:49:10.314Z,76.96
2022-08-25T04:49:44.381Z,77.48
2022-08-25T04:50:18.520Z,77.36
2022-08-25T04:50:52.714Z,77.82
2022-08-25T04:51:31.719Z,77.14
2022-08-25T04:52:07.788Z,77.72
2022-08-25T04:52:51.714Z,77.83
2022-08-25T04:53:26.916Z,79.18
2022-08-25T04:54:02.722Z,80.08
2022-08-25T04:54:39.067Z,79.80
2022-08-25T04:55:14.597Z,80.11
2022-08-25T04:55:52.062Z,81.15
2022-08-25T04:56:28.251Z,81.11
2022-08-25T04:57:01.222Z,81.60
2022-08-25T04:57:37.461Z,80.42
2022-08-25T04:58:14.716Z,79.86
2022-08-25T04:58:50.316Z,79.85
2022-08-25T04:59:25.916Z,80.54
2022-08-25T05:00:06.914Z,78.67
2022-08-25T05:00:42.010Z,77.60
2022-08-25T05:01:17.601Z,76.37
2022-08-25T05:01:55.697Z,77.19
2022-08-25T05:02:30.514Z,74.74
2022-08-25T05:03:45.824Z,74.90
2022-08-25T05:04:28.343Z,75.58
2022-08-25T05:05:05.113Z,76.65
2022-08-25T05:05:40.196Z,75.84
2022-08-25T05:06:16.041Z,75.84
2022-08-25T05:06:47.942Z,75.24
2022-08-25T05:07:24.117Z,75.13
2022-08-25T05:07:59.829Z,75.48
2022-08-25T05:08:33.196Z,74.02
2022-08-25T05:09:07.931Z,74.52
2022-08-25T05:09:43.345Z,73.84
2022-08-25T05:10:17.658Z,74.61
2022-08-25T05:10:51.026Z,73.56
2022-08-25T05:11:25.537Z,73.16
2022-08-25T05:11:57.631Z,73.05
2022-08-25T05:12:33.043Z,73.22
2022-08-25T05:13:08.515Z,73.32
2022-08-25T05:13:43.916Z,72.83
2022-08-25T05:14:26.958Z,71.84
2022-08-25T05:15:21.323Z,71.41
2022-08-25T05:16:00.187Z,71.41
2022-08-25T05:18:40.916Z,69.47
2022-08-25T05:20:46.160Z,71.24
2022-08-25T05:21:22.717Z,72.06
2022-08-25T05:21:58.379Z,73.13
2022-08-25T05:22:34.917Z,74.03
2022-08-25T05:23:09.719Z,72.46
2022-08-25T05:23:45.315Z,73.25
2022-08-25T05:24:21.717Z,74.48
2022-08-25T05:24:57.115Z,73.93
2022-08-25T05:25:32.716Z,73.05
2022-08-25T05:26:27.918Z,74.45
2022-08-25T05:27:04.514Z,74.34
2022-08-25T05:27:40.117Z,73.93
2022-08-25T05:28:18.462Z,73.23
2022-08-25T05:31:04.035Z,71.60
2022-08-25T05:31:43.113Z,73.08
2022-08-25T05:32:20.115Z,72.47
2022-08-25T05:33:07.715Z,71.97
2022-08-25T05:33:44.119Z,68.16
2022-08-25T05:34:18.384Z,68.17
2022-08-25T05:34:49.858Z,67.95
2022-08-25T05:35:22.561Z,67.83
2022-08-25T05:35:54.162Z,66.98
2022-08-25T05:36:26.842Z,67.33
2022-08-25T05:37:00.209Z,67.46
2022-08-25T05:37:31.776Z,68.92
2022-08-25T05:38:04.310Z,67.88
2022-08-25T05:38:36.232Z,67.29
2022-08-25T05:39:07.701Z,67.58
2022-08-25T05:39:39.142Z,65.57
2022-08-25T05:40:10.744Z,65.58
2022-08-25T05:40:42.380Z,66.76
2022-08-25T05:41:16.177Z,66.75
2022-08-25T05:41:47.608Z,66.16
2022-08-25T05:42:19.343Z,65.76
2022-08-25T05:42:51.066Z,65.38
2022-08-25T05:43:22.497Z,65.31
2022-08-25T05:43:54.068Z,65.85
2022-08-25T05:44:25.603Z,66.24
2022-08-25T05:44:57.177Z,64.88
2022-08-25T05:45:28.708Z,64.59
2022-08-25T05:46:00.466Z,64.72
2022-08-25T05:46:31.996Z,64.46
2022-08-25T05:47:03.576Z,63.98
2022-08-25T05:47:35.028Z,63.80
2022-08-25T05:48:06.841Z,63.62
2022-08-25T05:48:38.642Z,63.54
2022-08-25T05:49:10.157Z,63.39
2022-08-25T05:49:41.633Z,61.97
2022-08-25T05:50:13.126Z,61.01
2022-08-25T05:50:51.147Z,59.66
2022-08-25T05:51:22.686Z,58.01
2022-08-25T05:51:54.240Z,56.64
2022-08-25T05:52:26.862Z,55.82
2022-08-25T05:52:58.320Z,54.90
2022-08-25T05:53:31.077Z,53.83
2022-08-25T05:54:05.824Z,53.30
2022-08-25T05:54:37.273Z,52.91
2022-08-25T05:55:08.942Z,52.67
2022-08-25T05:55:43.955Z,51.82
2022-08-25T05:56:15.657Z,50.44
2022-08-25T05:56:47.463Z,49.32
2022-08-25T05:57:18.901Z,49.88
2022-08-25T05:57:50.377Z,49.06
2022-08-25T05:58:22.228Z,48.60
2022-08-25T05:58:54.367Z,48.47
2022-08-25T05:59:26.066Z,48.82
2022-08-25T05:59:57.507Z,49.02
2022-08-25T06:00:28.949Z,49.06
2022-08-25T06:01:23.690Z,48.44
2022-08-25T06:02:13.523Z,48.41
2022-08-25T06:02:46.454Z,46.60
2022-08-25T06:03:18.090Z,46.39
2022-08-25T06:03:50.987Z,46.64
2022-08-25T06:04:22.691Z,46.17
2022-08-25T06:04:54.204Z,46.26
2022-08-25T06:05:25.624Z,45.88
2022-08-25T06:06:05.712Z,45.63
2022-08-25T06:06:37.134Z,45.34
2022-08-25T06:07:08.716Z,45.37
2022-08-25T06:07:40.461Z,45.36
2022-08-25T06:08:11.921Z,45.37
2022-08-25T06:08:44.530Z,46.21
2022-08-25T06:09:16.025Z,46.01
2022-08-25T06:09:48.990Z,45.39
2022-08-25T06:10:21.982Z,44.22
2022-08-25T06:10:53.456Z,44.24
2022-08-25T06:11:24.901Z,43.87
2022-08-25T06:11:56.622Z,44.03
2022-08-25T06:12:28.065Z,44.17
2022-08-25T06:13:00.684Z,43.57
2022-08-25T06:13:32.700Z,42.51
2022-08-25T06:14:04.784Z,42.27
2022-08-25T06:14:36.335Z,41.95
2022-08-25T06:15:08.915Z,41.62
2022-08-25T06:15:40.514Z,41.75
2022-08-25T06:16:12.147Z,41.83
2022-08-25T06:16:43.665Z,41.60
2022-08-25T06:17:15.621Z,41.37
2022-08-25T06:17:48.102Z,41.38
2022-08-25T06:18:19.536Z,40.58
2022-08-25T06:18:51.026Z,40.85
2022-08-25T06:19:23.520Z,41.02
2022-08-25T06:19:55.475Z,41.06
2022-08-25T06:20:28.739Z,41.44
2022-08-25T06:21:06.872Z,40.99
2022-08-25T06:21:39.656Z,41.51
2022-08-25T06:22:11.293Z,41.27
2022-08-25T06:22:42.891Z,41.33
2022-08-25T06:23:14.867Z,42.31
2022-08-25T06:23:46.382Z,41.14
2022-08-25T06:24:17.842Z,41.42
2022-08-25T06:24:49.333Z,40.24
2022-08-25T06:25:21.942Z,40.36
2022-08-25T06:25:53.825Z,40.98
2022-08-25T06:26:27.723Z,40.10
2022-08-25T06:27:02.917Z,39.78
2022-08-25T06:27:37.922Z,39.63
2022-08-25T06:28:13.363Z,39.69
2022-08-25T06:28:46.288Z,40.20
2022-08-25T06:29:17.821Z,39.40
2022-08-25T06:29:49.375Z,39.74
2022-08-25T06:30:28.939Z,40.45
2022-08-25T06:31:05.531Z,40.65
2022-08-25T06:31:39.755Z,39.54
2022-08-25T06:32:15.847Z,40.66
2022-08-25T06:32:48.523Z,39.85
2022-08-25T06:33:21.720Z,39.63
2022-08-25T06:33:56.323Z,40.03
2022-08-25T06:34:30.520Z,39.62
2022-08-25T06:35:06.718Z,40.33
2022-08-25T06:35:59.103Z,40.02
2022-08-25T06:36:33.320Z,39.80
2022-08-25T06:37:08.718Z,41.03
2022-08-25T06:37:43.673Z,41.89
2022-08-25T06:38:17.717Z,42.03
2022-08-25T06:38:51.347Z,42.22
2022-08-25T06:39:25.918Z,41.85
2022-08-25T06:40:00.533Z,42.70
2022-08-25T06:40:35.209Z,42.20
2022-08-25T06:41:10.118Z,42.34
2022-08-25T06:41:45.517Z,41.80
2022-08-25T06:42:21.718Z,42.23
2022-08-25T06:42:57.318Z,41.14
2022-08-25T06:43:34.323Z,41.66
2022-08-25T06:44:12.518Z,40.41
2022-08-25T06:44:47.318Z,40.63
2022-08-25T06:45:22.554Z,40.33
2022-08-25T06:45:57.523Z,40.34
2022-08-25T06:46:35.923Z,40.32
2022-08-25T06:47:10.577Z,39.38
2022-08-25T06:47:46.106Z,39.30
2022-08-25T06:48:17.596Z,40.57
2022-08-25T06:48:50.718Z,39.95
2022-08-25T06:49:22.788Z,39.62
2022-08-25T06:49:57.328Z,38.87
2022-08-25T06:50:30.927Z,38.32
2022-08-25T06:51:10.169Z,39.65
2022-08-25T06:51:47.922Z,39.50
2022-08-25T06:52:22.318Z,39.85
2022-08-25T06:53:04.138Z,39.04
2022-08-25T06:53:38.522Z,38.68
2022-08-25T06:54:23.919Z,38.80
2022-08-25T06:54:57.720Z,39.41
2022-08-25T06:55:33.318Z,39.02
2022-08-25T06:56:09.068Z,39.12
2022-08-25T06:56:42.919Z,38.38
2022-08-25T06:57:17.918Z,39.27
2022-08-25T06:57:55.705Z,38.56
2022-08-25T06:58:31.322Z,39.28
2022-08-25T06:59:07.119Z,39.04
2022-08-25T06:59:41.920Z,39.18
2022-08-25T07:00:17.918Z,38.28
2022-08-25T07:00:53.173Z,38.01
2022-08-25T07:01:28.753Z,38.67
2022-08-25T07:02:06.854Z,38.49
2022-08-25T07:02:41.967Z,38.14
2022-08-25T07:03:15.968Z,38.98
2022-08-25T07:03:48.783Z,37.85
2022-08-25T07:04:26.322Z,37.90
2022-08-25T07:05:01.921Z,38.62
2022-08-25T07:05:44.664Z,38.95
2022-08-25T07:06:22.100Z,39.79
2022-08-25T07:06:55.318Z,39.47
2022-08-25T07:07:43.651Z,38.73
2022-08-25T07:08:17.952Z,39.01
2022-08-25T07:08:51.518Z,38.41
2022-08-25T07:09:24.531Z,39.35
2022-08-25T07:09:59.519Z,38.60
2022-08-25T07:10:33.918Z,37.39
2022-08-25T07:11:16.718Z,37.77
2022-08-25T07:11:52.132Z,36.83
2022-08-25T07:12:29.805Z,37.66
2022-08-25T07:13:03.929Z,37.97
2022-08-25T07:13:37.331Z,38.19
2022-08-25T07:14:13.528Z,38.13
2022-08-25T07:15:03.610Z,37.20
2022-08-25T07:15:43.130Z,36.70
2022-08-25T07:16:21.409Z,36.65
2022-08-25T07:16:55.928Z,36.13
2022-08-25T07:17:31.929Z,36.71
2022-08-25T07:18:06.261Z,36.82
2022-08-25T07:18:42.328Z,37.69
2022-08-25T07:19:22.121Z,37.44
2022-08-25T07:19:57.647Z,38.49
2022-08-25T07:20:32.729Z,37.76
2022-08-25T07:21:08.834Z,38.05
2022-08-25T07:21:43.933Z,37.85
2022-08-25T07:22:19.002Z,38.78
2022-08-25T07:22:53.931Z,38.74
2022-08-25T07:23:28.330Z,38.07
2022-08-25T07:24:01.623Z,37.80
2022-08-25T07:24:33.729Z,37.43
2022-08-25T07:25:07.734Z,38.12
2022-08-25T07:25:42.328Z,37.64
2022-08-25T07:26:36.852Z,36.98
2022-08-25T07:27:09.672Z,36.74
2022-08-25T07:27:45.294Z,36.05
2022-08-25T07:28:21.529Z,35.82
2022-08-25T07:28:56.128Z,35.17
2022-08-25T07:29:31.874Z,35.78
2022-08-25T07:30:08.129Z,35.21
2022-08-25T07:30:42.956Z,34.73
2022-08-25T07:31:18.196Z,34.99
2022-08-25T07:31:52.409Z,34.94
2022-08-25T07:32:26.500Z,34.97
2022-08-25T07:32:57.965Z,35.20
2022-08-25T07:33:31.742Z,35.06
2022-08-25T07:34:30.728Z,35.07
2022-08-25T07:35:20.928Z,35.14
2022-08-25T07:36:01.134Z,35.63
2022-08-25T07:36:37.104Z,35.77
2022-08-25T07:37:23.787Z,35.92
2022-08-25T07:38:12.301Z,36.00
2022-08-25T07:38:49.329Z,36.27
2022-08-25T07:39:29.119Z,36.11
2022-08-25T07:40:05.762Z,38.38
2022-08-25T07:40:43.016Z,37.98
2022-08-25T07:41:18.735Z,37.78
2022-08-25T07:41:53.534Z,37.99